Time;durP1;ratioP1;P1;durP2;ratioP2;P2;SDS_P1;SDS_P2;PMS_P1;PMS_P2;Temp;Humidity;BMP_temperature;BMP_pressure;BME280_temperature;BME280_humidity;BME280_pressure;Samples;Min_cycle;Max_cycle;Signal;HPM_P1;HPM_P2
2021/04/01 00:08:41;;;;;;;93.77;60.30;;;;;;;7.08;69.48;99646.79;471546;1168;114296;-63
2021/04/01 00:18:45;;;;;;;82.97;54.37;;;;;;;6.98;70.38;99634.20;472001;1171;114068;-62
2021/04/01 00:28:49;;;;;;;84.40;53.30;;;;;;;6.93;70.69;99617.08;471767;1169;114944;-64
2021/04/01 00:38:52;;;;;;;91.53;60.33;;;;;;;6.89;70.42;99605.07;471802;1169;114382;-63
2021/04/01 00:48:57;;;;;;;94.55;58.50;;;;;;;6.87;70.49;99579.89;471638;1170;114486;-64
2021/04/01 00:59:02;;;;;;;91.27;57.37;;;;;;;6.78;70.63;99575.12;471790;1169;114537;-63
2021/04/01 01:09:07;;;;;;;89.20;52.90;;;;;;;6.69;71.03;99567.73;471525;1171;114519;-62
2021/04/01 01:19:13;;;;;;;84.80;51.87;;;;;;;6.50;70.44;99552.12;471633;1169;114512;-63
2021/04/01 01:29:16;;;;;;;89.37;58.73;;;;;;;6.44;70.91;99535.86;471442;1170;114323;-63
2021/04/01 01:39:20;;;;;;;84.70;55.53;;;;;;;6.37;70.63;99523.19;471353;1168;114852;-63
2021/04/01 01:49:25;;;;;;;84.00;56.93;;;;;;;6.29;70.96;99516.56;471489;1170;114510;-62
2021/04/01 01:59:29;;;;;;;92.00;57.23;;;;;;;6.21;71.34;99507.42;471390;1167;114535;-63
2021/04/01 02:09:33;;;;;;;93.60;58.30;;;;;;;6.15;71.29;99492.91;471534;1168;114642;-64
2021/04/01 02:19:37;;;;;;;91.40;57.90;;;;;;;6.05;71.39;99491.66;471405;1169;114447;-62
2021/04/01 02:29:41;;;;;;;101.30;60.85;;;;;;;5.89;70.85;99477.53;471419;1169;114605;-63
2021/04/01 02:39:45;;;;;;;88.30;58.00;;;;;;;5.65;71.02;99469.08;471893;1171;114053;-64
2021/04/01 02:49:48;;;;;;;90.77;54.97;;;;;;;5.51;71.63;99466.27;471910;1169;114414;-62
2021/04/01 02:59:52;;;;;;;76.30;50.73;;;;;;;5.46;71.85;99461.26;471911;1170;114722;-63
2021/04/01 03:09:56;;;;;;;81.97;52.63;;;;;;;5.48;72.37;99462.03;472206;1171;114311;-63
2021/04/01 03:20:00;;;;;;;89.40;51.00;;;;;;;5.54;71.79;99447.88;471736;1170;114389;-63
2021/04/01 03:30:07;;;;;;;79.33;47.03;;;;;;;5.50;72.24;99449.81;471535;1169;114765;-64
2021/04/01 03:40:12;;;;;;;82.80;48.20;;;;;;;5.26;72.00;99450.00;471408;1168;114435;-62
2021/04/01 03:50:16;;;;;;;82.60;46.67;;;;;;;5.01;72.20;99422.42;472026;1170;114749;-62
2021/04/01 04:00:24;;;;;;;69.33;44.27;;;;;;;4.87;72.72;99424.78;471446;1169;114403;-62
2021/04/01 04:20:55;;;;;;;58.58;40.48;;;;;;;5.03;73.65;99399.80;471356;1167;115355;-63
2021/04/01 04:30:59;;;;;;;72.45;41.55;;;;;;;5.17;73.71;99385.32;471269;1169;114814;-61
2021/04/01 04:41:03;;;;;;;75.40;44.20;;;;;;;5.48;73.75;99373.48;471281;1169;115430;-63
2021/04/01 04:51:08;;;;;;;74.60;38.83;;;;;;;5.75;74.05;99379.16;471508;1168;114804;-63
2021/04/01 05:04:36;;;;;;;76.10;42.45;;;;;;;6.01;73.07;99377.11;471699;1168;114385;-63
2021/04/01 05:11:36;;;;;;;69.00;42.63;;;;;;;6.66;71.75;99375.66;471626;1170;114560;-63
2021/04/01 05:21:48;;;;;;;68.57;39.90;;;;;;;7.93;71.33;99367.18;471797;1170;114746;-62
2021/04/01 05:31:52;;;;;;;61.83;38.67;;;;;;;12.00;69.20;99354.11;471646;1168;114917;-63
2021/04/01 05:41:58;;;;;;;58.23;38.53;;;;;;;17.14;62.70;99353.63;471774;1169;114546;-64
2021/04/01 06:02:42;;;;;;;49.33;36.00;;;;;;;24.59;49.78;99320.50;471897;1170;115091;-65
2021/04/01 06:12:46;;;;;;;46.43;33.73;;;;;;;26.24;46.39;99314.44;471943;1168;115546;-65
2021/04/01 06:22:57;;;;;;;34.27;28.27;;;;;;;28.22;41.29;99323.95;471225;1168;114541;-64
2021/04/01 06:33:04;;;;;;;37.87;29.13;;;;;;;28.94;38.71;99308.28;471321;1168;114546;-63
2021/04/01 06:43:17;;;;;;;38.13;26.77;;;;;;;31.16;36.25;99304.64;471451;1169;114400;-66
2021/04/01 06:53:25;;;;;;;33.20;25.90;;;;;;;32.50;33.14;99293.61;471404;1170;114657;-67
2021/04/01 07:03:57;;;;;;;33.40;25.30;;;;;;;30.85;33.07;99284.25;471279;1170;114880;-65
2021/04/01 07:14:05;;;;;;;26.30;22.10;;;;;;;34.60;30.56;99280.58;478171;1171;114774;-70
2021/04/01 07:35:06;;;;;;;23.47;21.03;;;;;;;33.18;28.04;99270.77;471274;1168;115604;-65
2021/04/01 07:55:34;;;;;;;29.70;23.30;;;;;;;34.94;27.08;99263.80;471281;1167;115014;-62
2021/04/01 08:05:41;;;;;;;29.83;26.73;;;;;;;33.43;25.15;99245.72;470880;1169;115414;-62
2021/04/01 08:15:49;;;;;;;29.70;23.50;;;;;;;33.53;26.32;99237.67;471023;1169;114971;-61
2021/04/01 08:26:02;;;;;;;30.67;21.90;;;;;;;37.76;24.19;99238.97;475259;1169;114312;-62
2021/04/01 08:36:27;;;;;;;33.50;20.60;;;;;;;39.00;22.74;99227.66;471511;1170;114667;-62
2021/04/01 08:47:01;;;;;;;32.15;20.45;;;;;;;36.04;22.28;99230.84;464819;1169;10001847;-71
2021/04/01 08:57:15;;;;;;;25.90;20.50;;;;;;;31.38;23.94;99206.35;472083;1169;114507;-70
2021/04/01 09:07:26;;;;;;;25.55;19.05;;;;;;;29.22;25.30;99182.53;471672;1170;114651;-70
2021/04/01 09:17:32;;;;;;;23.30;18.33;;;;;;;27.50;26.81;99171.36;471745;1171;114780;-71
2021/04/01 09:27:45;;;;;;;41.25;20.43;;;;;;;26.31;27.60;99167.23;471613;1170;114138;-70
2021/04/01 09:38:00;;;;;;;20.20;14.90;;;;;;;25.32;28.09;99158.02;471907;1170;115663;-69
2021/04/01 09:48:05;;;;;;;19.10;12.23;;;;;;;24.33;28.45;99154.82;466233;1168;10000996;-71
2021/04/01 09:58:22;;;;;;;20.03;12.60;;;;;;;24.73;27.49;99149.63;473176;1168;114926;-68
2021/04/01 10:08:29;;;;;;;16.50;12.55;;;;;;;24.53;26.99;99127.25;473561;1169;115332;-71
2021/04/01 10:18:36;;;;;;;19.90;11.90;;;;;;;24.11;26.38;99135.33;471566;1170;114959;-67
2021/04/01 10:28:56;;;;;;;13.78;9.68;;;;;;;24.41;25.90;99126.98;471565;1170;114099;-66
2021/04/01 10:39:08;;;;;;;14.07;8.90;;;;;;;24.53;25.74;99114.68;471437;1169;114525;-65
2021/04/01 10:49:13;;;;;;;15.17;12.27;;;;;;;23.98;25.84;99098.50;471404;1169;115156;-66
2021/04/01 10:59:17;;;;;;;16.73;10.67;;;;;;;23.82;26.27;99089.77;471528;1170;114734;-65
2021/04/01 11:09:25;;;;;;;19.93;13.50;;;;;;;23.37;26.57;99090.08;471125;1170;114609;-66
2021/04/01 11:19:33;;;;;;;19.60;13.53;;;;;;;23.73;26.65;99078.39;471520;1169;115073;-66
2021/04/01 11:29:40;;;;;;;17.50;11.13;;;;;;;23.76;26.46;99069.10;471255;1168;115054;-65
2021/04/01 11:39:45;;;;;;;22.17;11.97;;;;;;;22.86;25.48;99073.15;471425;1169;114548;-65
2021/04/01 11:49:50;;;;;;;14.00;9.30;;;;;;;23.06;26.27;99069.83;471644;1170;116026;-68
2021/04/01 11:59:59;;;;;;;19.27;11.93;;;;;;;23.17;25.89;99057.76;471331;1169;114614;-66
2021/04/01 12:10:04;;;;;;;18.40;10.60;;;;;;;23.04;25.78;99048.59;471430;1169;114188;-67
2021/04/01 12:20:12;;;;;;;17.40;12.73;;;;;;;22.50;25.86;99045.41;471694;1168;114646;-60
2021/04/01 12:30:24;;;;;;;16.43;12.83;;;;;;;21.61;26.75;99036.48;471307;1169;115379;-59
2021/04/01 12:40:28;;;;;;;17.17;13.13;;;;;;;21.62;27.84;99027.45;471754;1170;115016;-60
2021/04/01 12:50:34;;;;;;;18.77;12.97;;;;;;;21.63;28.47;99022.92;471588;1170;114786;-59
2021/04/01 13:00:45;;;;;;;20.60;13.90;;;;;;;21.62;28.47;99007.91;471615;1170;114493;-63
2021/04/01 13:10:49;;;;;;;25.63;16.37;;;;;;;21.48;28.56;99007.73;472046;1168;114430;-72
2021/04/01 13:20:54;;;;;;;22.80;17.00;;;;;;;21.62;28.72;98991.88;471674;1169;114426;-73
2021/04/01 13:31:01;;;;;;;25.90;17.10;;;;;;;21.69;29.39;98987.50;471340;1168;114575;-67
2021/04/01 13:41:06;;;;;;;27.70;18.75;;;;;;;21.50;29.57;98987.00;471571;1170;114663;-68
2021/04/01 13:51:12;;;;;;;31.43;19.47;;;;;;;21.32;30.76;98999.91;471721;1170;114278;-67
2021/04/01 14:12:07;;;;;;;20.18;15.35;;;;;;;19.29;32.15;99025.36;455650;1169;20002417;-63
2021/04/01 14:22:12;;;;;;;26.30;14.63;;;;;;;18.86;31.73;99041.49;471461;1170;116120;-64
2021/04/01 14:32:16;;;;;;;18.20;12.20;;;;;;;18.60;31.91;99036.31;471565;1169;114169;-65
2021/04/01 14:42:23;;;;;;;23.97;13.73;;;;;;;18.46;32.82;99051.06;471354;1169;114181;-63
2021/04/01 14:52:27;;;;;;;22.73;15.67;;;;;;;18.18;34.66;99046.02;471587;1170;115149;-63
2021/04/01 15:02:31;;;;;;;23.90;14.20;;;;;;;17.75;34.94;99064.58;471475;1169;114809;-63
2021/04/01 15:12:35;;;;;;;20.80;13.00;;;;;;;17.21;33.25;99071.70;463587;1169;10001129;-63
2021/04/01 15:22:38;;;;;;;16.30;11.05;;;;;;;16.70;32.74;99074.05;470468;1169;114992;-62
2021/04/01 15:32:42;;;;;;;17.73;12.13;;;;;;;16.31;33.64;99077.78;484116;1169;114415;-64
2021/04/01 15:42:46;;;;;;;18.57;13.20;;;;;;;16.06;34.45;99101.33;471171;1169;114574;-63
2021/04/01 15:52:50;;;;;;;21.73;14.53;;;;;;;15.86;35.33;99087.28;473991;1169;114992;-63
2021/04/01 16:02:55;;;;;;;22.23;14.77;;;;;;;15.73;36.10;99078.83;472024;1170;114680;-64
2021/04/01 16:13:05;;;;;;;19.87;12.47;;;;;;;15.43;36.99;99102.72;472119;1170;114557;-65
2021/04/01 16:23:09;;;;;;;16.23;11.47;;;;;;;15.26;37.70;99094.54;471771;1169;115359;-64
2021/04/01 16:33:13;;;;;;;14.93;7.83;;;;;;;15.06;38.28;99103.45;472005;1170;114698;-75
2021/04/01 16:43:21;;;;;;;17.37;10.43;;;;;;;14.83;39.04;99103.72;471585;1169;114286;-74
2021/04/01 16:53:30;;;;;;;13.07;7.57;;;;;;;14.55;40.74;99106.98;456628;1169;20002121;-67
2021/04/01 17:03:35;;;;;;;16.13;8.30;;;;;;;14.21;41.67;99119.69;471705;1169;114739;-68
2021/04/01 17:13:39;;;;;;;14.30;7.47;;;;;;;13.90;43.28;99122.33;472680;1170;114960;-66
2021/04/01 17:23:45;;;;;;;9.00;7.80;;;;;;;13.60;44.47;99138.00;470819;1170;115417;-69
2021/04/01 17:33:49;;;;;;;11.80;6.50;;;;;;;13.26;45.91;99146.87;476152;1168;114825;-73
2021/04/01 17:43:53;;;;;;;10.40;3.77;;;;;;;12.95;47.71;99159.09;471964;1169;114567;-71
2021/04/01 17:53:58;;;;;;;7.20;3.23;;;;;;;12.72;49.25;99148.61;471687;1171;114568;-68
2021/04/01 18:25:02;;;;;;;5.90;3.50;;;;;;;12.09;51.67;99178.92;471535;1169;115331;-66
2021/04/01 18:35:18;;;;;;;12.23;6.77;;;;;;;11.88;52.65;99190.10;471888;1168;114606;-63
2021/04/01 18:45:28;;;;;;;12.10;7.85;;;;;;;11.70;53.57;99199.41;471262;1170;114820;-64
2021/04/01 18:55:49;;;;;;;12.00;8.33;;;;;;;11.54;53.45;99203.16;471639;1170;114987;-65
2021/04/01 19:05:57;;;;;;;15.67;10.37;;;;;;;11.38;53.54;99219.26;471454;1170;114569;-67
2021/04/01 19:26:30;;;;;;;15.87;12.37;;;;;;;11.14;54.69;99225.36;471384;1168;114818;-65
2021/04/01 19:36:35;;;;;;;25.23;14.70;;;;;;;11.00;54.84;99239.48;471840;1168;116226;-65
2021/04/01 19:46:38;;;;;;;19.90;12.47;;;;;;;10.76;55.75;99219.27;471801;1170;114585;-67
2021/04/01 19:56:46;;;;;;;18.37;13.93;;;;;;;10.61;56.63;99226.43;471471;1169;114673;-64
2021/04/01 20:06:51;;;;;;;24.95;15.85;;;;;;;10.61;57.57;99212.45;471483;1169;115135;-65
2021/04/01 20:16:55;;;;;;;25.67;18.97;;;;;;;10.51;57.95;99218.38;471858;1168;115194;-66
2021/04/01 20:26:59;;;;;;;34.93;23.97;;;;;;;10.38;58.63;99215.72;471560;1169;114751;-66
2021/04/01 20:37:04;;;;;;;31.45;23.30;;;;;;;10.26;59.63;99220.96;471285;1168;115152;-65
2021/04/01 20:47:08;;;;;;;34.30;23.80;;;;;;;10.10;60.46;99235.14;472059;1170;115123;-64
2021/04/01 20:57:11;;;;;;;31.57;21.77;;;;;;;9.92;61.52;99240.67;471288;1170;114594;-65
2021/04/01 21:07:15;;;;;;;32.50;22.57;;;;;;;9.58;62.93;99247.32;470874;1169;114558;-65
2021/04/01 21:17:19;;;;;;;25.83;18.13;;;;;;;9.35;64.12;99237.41;456470;1169;10001403;-74
2021/04/01 21:27:22;;;;;;;25.27;17.77;;;;;;;9.20;64.99;99241.00;471173;1170;114949;-75
2021/04/01 21:37:29;;;;;;;26.80;19.47;;;;;;;9.05;66.06;99230.57;474258;1169;115654;-78
2021/04/01 21:47:35;;;;;;;29.40;20.73;;;;;;;8.86;66.45;99243.13;474703;1169;114406;-75
2021/04/01 21:57:39;;;;;;;37.43;30.53;;;;;;;8.47;66.95;99228.00;474888;1168;116024;-75
2021/04/01 22:07:44;;;;;;;25.23;20.97;;;;;;;8.18;67.67;99254.13;474832;1169;114957;-75
2021/04/01 22:17:49;;;;;;;22.60;18.43;;;;;;;7.92;68.31;99256.52;474922;1170;114405;-74
2021/04/01 22:27:54;;;;;;;23.03;16.20;;;;;;;7.68;69.65;99290.16;474996;1169;114277;-73
2021/04/01 22:38:00;;;;;;;24.40;16.10;;;;;;;7.50;70.16;99298.09;475080;1167;114014;-75
2021/04/01 22:48:06;;;;;;;25.03;15.37;;;;;;;7.33;70.45;99309.48;474851;1171;114354;-75
2021/04/01 22:58:12;;;;;;;16.03;12.40;;;;;;;7.11;71.10;99344.59;474950;1170;114290;-74
2021/04/01 23:08:17;;;;;;;6.67;5.97;;;;;;;6.76;71.39;99352.53;474872;1168;114429;-72
2021/04/01 23:18:21;;;;;;;3.78;3.48;;;;;;;6.24;71.56;99363.86;473045;1169;113753;-73
2021/04/01 23:28:25;;;;;;;2.63;2.43;;;;;;;5.78;71.23;99382.56;473839;1170;113644;-63
2021/04/01 23:38:30;;;;;;;2.53;2.33;;;;;;;5.47;72.64;99398.70;471289;1171;113654;-70
2021/04/01 23:48:34;;;;;;;2.83;2.40;;;;;;;5.01;72.21;99414.61;471292;1170;114033;-67
2021/04/01 23:58:38;;;;;;;2.10;1.90;;;;;;;4.62;72.37;99418.89;471650;1168;113687;-66
